createdAt,value
2022-08-16T00:03:37.690Z,100
2022-08-16T00:13:41.538Z,100
2022-08-16T00:23:40.312Z,100
2022-08-16T00:33:34.596Z,100
2022-08-16T00:43:40.931Z,100
2022-08-16T00:53:34.568Z,100
2022-08-16T01:03:34.944Z,100
2022-08-16T01:13:34.552Z,100
2022-08-16T01:23:58.296Z,100
2022-08-16T01:33:35.964Z,100
2022-08-16T01:43:34.521Z,100
2022-08-16T01:53:34.531Z,100
2022-08-16T02:03:34.494Z,100
2022-08-16T02:13:34.501Z,100
2022-08-16T02:23:34.480Z,100
2022-08-16T02:33:42.770Z,100
2022-08-16T02:43:34.461Z,100
2022-08-16T02:53:34.443Z,100
2022-08-16T03:04:30.312Z,100
2022-08-16T03:13:40.077Z,100
2022-08-16T03:23:35.665Z,100
2022-08-16T03:33:34.419Z,100
2022-08-16T03:43:50.927Z,100
2022-08-16T03:53:37.558Z,100
2022-08-16T04:03:34.392Z,100
2022-08-16T04:13:59.637Z,100
2022-08-16T04:23:34.375Z,100
2022-08-16T04:33:34.857Z,100
2022-08-16T04:43:34.343Z,100
2022-08-16T04:53:34.326Z,100
2022-08-16T05:03:34.326Z,100
2022-08-16T05:13:40.156Z,100
2022-08-16T05:23:34.320Z,100
2022-08-16T05:33:34.277Z,100
2022-08-16T05:43:43.078Z,100
2022-08-16T05:53:36.375Z,100
2022-08-16T06:03:34.392Z,92
2022-08-16T06:13:34.236Z,94
2022-08-16T06:23:34.232Z,95
2022-08-16T06:33:40.361Z,93
2022-08-16T06:43:34.211Z,90
2022-08-16T06:53:34.894Z,85
2022-08-16T07:03:54.774Z,80
2022-08-16T07:23:36.903Z,70
2022-08-16T07:33:51.690Z,68
2022-08-16T07:43:34.166Z,66
2022-08-16T07:53:34.156Z,65
2022-08-16T08:03:35.800Z,65
2022-08-16T08:13:42.094Z,64
2022-08-16T08:23:34.100Z,60
2022-08-16T08:33:34.146Z,58
2022-08-16T08:43:36.400Z,57
2022-08-16T08:53:34.069Z,55
2022-08-16T09:03:34.091Z,55
2022-08-16T09:13:34.026Z,55
2022-08-16T09:23:36.366Z,50
2022-08-16T09:33:37.126Z,49
2022-08-16T09:43:53.533Z,49
2022-08-16T09:53:33.991Z,49
2022-08-16T10:03:34.000Z,46
2022-08-16T10:13:33.958Z,47
2022-08-16T10:23:33.938Z,45
2022-08-16T10:33:34.259Z,44
2022-08-16T10:43:33.919Z,46
2022-08-16T10:53:34.019Z,42
2022-08-16T11:03:41.676Z,42
2022-08-16T11:23:33.863Z,42
2022-08-16T11:43:33.843Z,42
2022-08-16T11:53:35.708Z,39
2022-08-16T12:03:34.393Z,39
2022-08-16T12:13:33.822Z,38
2022-08-16T12:23:33.773Z,37
2022-08-16T12:33:42.893Z,36
2022-08-16T12:43:33.748Z,37
2022-08-16T12:53:33.760Z,37
2022-08-16T13:03:39.714Z,35
2022-08-16T13:13:33.724Z,34
2022-08-16T13:23:33.728Z,35
2022-08-16T13:33:33.707Z,34
2022-08-16T13:43:33.693Z,34
2022-08-16T13:53:33.713Z,39
2022-08-16T14:03:33.667Z,44
2022-08-16T14:13:34.093Z,46
2022-08-16T14:23:33.633Z,43
2022-08-16T14:33:33.614Z,43
2022-08-16T14:43:33.629Z,41
2022-08-16T14:53:33.608Z,40
2022-08-16T15:03:37.271Z,38
2022-08-16T15:13:33.564Z,41
2022-08-16T15:23:34.230Z,42
2022-08-16T15:33:33.592Z,40
2022-08-16T15:43:34.071Z,38
2022-08-16T15:53:37.739Z,36
2022-08-16T16:03:34.451Z,36
2022-08-16T16:13:33.484Z,36
2022-08-16T16:23:33.489Z,37
2022-08-16T16:33:33.473Z,36
2022-08-16T16:43:33.440Z,37
2022-08-16T16:53:37.486Z,42
2022-08-16T17:03:33.499Z,42
2022-08-16T17:13:33.420Z,42
2022-08-16T17:23:57.930Z,47
2022-08-16T17:33:36.749Z,51
2022-08-16T17:43:33.371Z,52
2022-08-16T17:53:33.367Z,54
2022-08-16T18:04:03.339Z,55
2022-08-16T18:13:33.328Z,56
2022-08-16T18:23:33.340Z,57
2022-08-16T18:33:33.354Z,58
2022-08-16T18:43:54.168Z,59
2022-08-16T18:53:33.290Z,59
2022-08-16T19:03:33.277Z,59
2022-08-16T19:13:33.284Z,60
2022-08-16T19:23:33.256Z,61
2022-08-16T19:33:33.245Z,61
2022-08-16T19:43:33.239Z,61
2022-08-16T19:53:33.226Z,62
2022-08-16T20:03:33.253Z,67
2022-08-16T20:13:33.193Z,70
2022-08-16T20:23:33.319Z,72
2022-08-16T20:33:33.172Z,75
2022-08-16T20:43:33.165Z,77
2022-08-16T20:53:33.132Z,81
2022-08-16T21:03:33.160Z,85
2022-08-16T21:13:33.151Z,88
2022-08-16T21:23:33.107Z,92
2022-08-16T21:33:33.103Z,95
2022-08-16T21:53:33.074Z,100
2022-08-16T22:03:33.178Z,100
2022-08-16T22:13:33.052Z,100
2022-08-16T22:23:33.071Z,100
2022-08-16T22:33:33.035Z,100
2022-08-16T22:43:33.029Z,100
2022-08-16T22:53:33.055Z,100
2022-08-16T23:03:33.021Z,100
2022-08-16T23:13:33.027Z,100
2022-08-16T23:23:32.999Z,100
2022-08-16T23:33:32.994Z,100
2022-08-16T23:43:32.952Z,100
2022-08-16T23:53:32.949Z,100
